sensor_id;sensor_type;location;lat;lon;timestamp;temperature;humidity
25512;DHT22;13414;44.534;18.700;2023-04-19T00:00:52;11.50;99.90
25512;DHT22;13414;44.534;18.700;2023-04-19T00:03:19;11.60;99.90
25512;DHT22;13414;44.534;18.700;2023-04-19T00:05:49;11.60;99.90
25512;DHT22;13414;44.534;18.700;2023-04-19T00:08:18;11.70;99.90
25512;DHT22;13414;44.534;18.700;2023-04-19T00:10:46;11.70;99.90
25512;DHT22;13414;44.534;18.700;2023-04-19T00:13:13;11.80;99.90
25512;DHT22;13414;44.534;18.700;2023-04-19T00:15:41;11.80;99.90
25512;DHT22;13414;44.534;18.700;2023-04-19T00:18:10;11.80;99.90
25512;DHT22;13414;44.534;18.700;2023-04-19T00:20:38;11.80;99.90
25512;DHT22;13414;44.534;18.700;2023-04-19T00:23:05;11.80;99.90
25512;DHT22;13414;44.534;18.700;2023-04-19T00:25:33;11.80;99.90
25512;DHT22;13414;44.534;18.700;2023-04-19T00:28:00;11.70;99.90
25512;DHT22;13414;44.534;18.700;2023-04-19T00:30:28;11.70;99.90
25512;DHT22;13414;44.534;18.700;2023-04-19T00:32:57;11.80;99.90
25512;DHT22;13414;44.534;18.700;2023-04-19T00:35:26;11.70;99.90
25512;DHT22;13414;44.534;18.700;2023-04-19T00:37:53;11.70;99.90
25512;DHT22;13414;44.534;18.700;2023-04-19T00:40:21;11.70;99.90
25512;DHT22;13414;44.534;18.700;2023-04-19T00:42:49;11.70;99.90
25512;DHT22;13414;44.534;18.700;2023-04-19T00:45:17;11.70;99.90
25512;DHT22;13414;44.534;18.700;2023-04-19T00:47:44;11.70;99.90
25512;DHT22;13414;44.534;18.700;2023-04-19T00:50:12;11.70;99.90
25512;DHT22;13414;44.534;18.700;2023-04-19T00:52:41;11.60;99.90
25512;DHT22;13414;44.534;18.700;2023-04-19T00:55:09;11.60;99.90
25512;DHT22;13414;44.534;18.700;2023-04-19T00:57:36;11.60;99.90
25512;DHT22;13414;44.534;18.700;2023-04-19T01:00:06;11.60;99.90
25512;DHT22;13414;44.534;18.700;2023-04-19T01:02:35;11.60;99.90
25512;DHT22;13414;44.534;18.700;2023-04-19T01:05:03;11.60;99.90
25512;DHT22;13414;44.534;18.700;2023-04-19T01:07:32;11.60;99.90
25512;DHT22;13414;44.534;18.700;2023-04-19T01:10:02;11.70;99.90
25512;DHT22;13414;44.534;18.700;2023-04-19T01:12:29;11.70;99.90
25512;DHT22;13414;44.534;18.700;2023-04-19T01:14:57;11.60;99.90
25512;DHT22;13414;44.534;18.700;2023-04-19T01:17:25;11.60;99.90
25512;DHT22;13414;44.534;18.700;2023-04-19T01:19:58;11.60;99.90
25512;DHT22;13414;44.534;18.700;2023-04-19T01:22:28;11.60;99.90
25512;DHT22;13414;44.534;18.700;2023-04-19T01:24:56;11.60;99.90
25512;DHT22;13414;44.534;18.700;2023-04-19T01:27:24;11.70;99.90
25512;DHT22;13414;44.534;18.700;2023-04-19T01:29:52;11.60;99.90
25512;DHT22;13414;44.534;18.700;2023-04-19T01:32:19;11.60;99.90
25512;DHT22;13414;44.534;18.700;2023-04-19T01:34:49;11.60;99.90
25512;DHT22;13414;44.534;18.700;2023-04-19T01:37:18;11.60;99.90
25512;DHT22;13414;44.534;18.700;2023-04-19T01:39:47;11.70;99.90
25512;DHT22;13414;44.534;18.700;2023-04-19T01:42:14;11.70;99.90
25512;DHT22;13414;44.534;18.700;2023-04-19T01:44:43;11.70;99.90
25512;DHT22;13414;44.534;18.700;2023-04-19T01:47:11;11.70;99.90
25512;DHT22;13414;44.534;18.700;2023-04-19T01:49:39;11.70;99.90
25512;DHT22;13414;44.534;18.700;2023-04-19T01:52:08;11.70;99.90
25512;DHT22;13414;44.534;18.700;2023-04-19T01:54:37;11.70;99.90
25512;DHT22;13414;44.534;18.700;2023-04-19T01:57:07;11.70;99.90
25512;DHT22;13414;44.534;18.700;2023-04-19T01:59:34;11.70;99.90
25512;DHT22;13414;44.534;18.700;2023-04-19T02:02:02;11.60;99.90
25512;DHT22;13414;44.534;18.700;2023-04-19T02:04:33;11.70;99.90
25512;DHT22;13414;44.534;18.700;2023-04-19T02:07:01;11.70;99.90
25512;DHT22;13414;44.534;18.700;2023-04-19T02:09:28;11.70;99.90
25512;DHT22;13414;44.534;18.700;2023-04-19T02:11:55;11.70;99.90
25512;DHT22;13414;44.534;18.700;2023-04-19T02:14:24;11.70;99.90
25512;DHT22;13414;44.534;18.700;2023-04-19T02:16:53;11.70;99.90
25512;DHT22;13414;44.534;18.700;2023-04-19T02:19:21;11.70;99.90
25512;DHT22;13414;44.534;18.700;2023-04-19T02:21:50;11.60;99.90
25512;DHT22;13414;44.534;18.700;2023-04-19T02:24:18;11.60;99.90
25512;DHT22;13414;44.534;18.700;2023-04-19T02:26:47;11.60;99.90
25512;DHT22;13414;44.534;18.700;2023-04-19T02:29:15;11.60;99.90
25512;DHT22;13414;44.534;18.700;2023-04-19T02:31:47;11.60;99.90
25512;DHT22;13414;44.534;18.700;2023-04-19T02:34:16;11.60;99.90
25512;DHT22;13414;44.534;18.700;2023-04-19T02:36:44;11.60;99.90
25512;DHT22;13414;44.534;18.700;2023-04-19T02:39:13;11.70;99.90
25512;DHT22;13414;44.534;18.700;2023-04-19T02:41:43;11.70;99.90
25512;DHT22;13414;44.534;18.700;2023-04-19T02:44:13;11.80;99.90
25512;DHT22;13414;44.534;18.700;2023-04-19T02:46:49;11.80;99.90
25512;DHT22;13414;44.534;18.700;2023-04-19T02:49:17;11.80;99.90
25512;DHT22;13414;44.534;18.700;2023-04-19T02:51:49;11.80;99.90
25512;DHT22;13414;44.534;18.700;2023-04-19T02:54:16;11.80;99.90
25512;DHT22;13414;44.534;18.700;2023-04-19T02:56:45;11.80;99.90
25512;DHT22;13414;44.534;18.700;2023-04-19T02:59:13;11.80;99.90
25512;DHT22;13414;44.534;18.700;2023-04-19T03:01:43;11.80;99.90
25512;DHT22;13414;44.534;18.700;2023-04-19T03:04:12;11.80;99.90
25512;DHT22;13414;44.534;18.700;2023-04-19T03:06:41;11.90;99.90
25512;DHT22;13414;44.534;18.700;2023-04-19T03:09:09;11.90;99.90
25512;DHT22;13414;44.534;18.700;2023-04-19T03:11:37;11.90;99.90
25512;DHT22;13414;44.534;18.700;2023-04-19T03:14:04;11.90;99.90
25512;DHT22;13414;44.534;18.700;2023-04-19T03:16:38;11.90;99.90
25512;DHT22;13414;44.534;18.700;2023-04-19T03:19:06;11.90;99.90
25512;DHT22;13414;44.534;18.700;2023-04-19T03:21:40;11.90;99.90
25512;DHT22;13414;44.534;18.700;2023-04-19T03:24:08;11.90;99.90
25512;DHT22;13414;44.534;18.700;2023-04-19T03:26:39;11.90;99.90
25512;DHT22;13414;44.534;18.700;2023-04-19T03:29:07;11.90;99.90
25512;DHT22;13414;44.534;18.700;2023-04-19T03:31:39;11.80;99.90
25512;DHT22;13414;44.534;18.700;2023-04-19T03:34:09;11.80;99.90
25512;DHT22;13414;44.534;18.700;2023-04-19T03:36:42;11.90;99.90
25512;DHT22;13414;44.534;18.700;2023-04-19T03:39:10;11.80;99.90
25512;DHT22;13414;44.534;18.700;2023-04-19T03:41:40;11.90;99.90
25512;DHT22;13414;44.534;18.700;2023-04-19T03:44:40;11.90;99.90
25512;DHT22;13414;44.534;18.700;2023-04-19T03:47:09;11.90;99.90
25512;DHT22;13414;44.534;18.700;2023-04-19T03:49:42;11.90;99.90
25512;DHT22;13414;44.534;18.700;2023-04-19T03:52:11;11.90;99.90
25512;DHT22;13414;44.534;18.700;2023-04-19T03:54:38;11.90;99.90
25512;DHT22;13414;44.534;18.700;2023-04-19T03:57:12;11.90;99.90
25512;DHT22;13414;44.534;18.700;2023-04-19T03:59:40;11.90;99.90
25512;DHT22;13414;44.534;18.700;2023-04-19T04:02:08;11.90;99.90
25512;DHT22;13414;44.534;18.700;2023-04-19T04:04:44;11.90;99.90
25512;DHT22;13414;44.534;18.700;2023-04-19T04:07:18;11.90;99.90
25512;DHT22;13414;44.534;18.700;2023-04-19T04:09:46;12.00;99.90
25512;DHT22;13414;44.534;18.700;2023-04-19T04:12:15;12.00;99.90
25512;DHT22;13414;44.534;18.700;2023-04-19T04:14:42;12.00;99.90
25512;DHT22;13414;44.534;18.700;2023-04-19T04:17:11;12.00;99.90
25512;DHT22;13414;44.534;18.700;2023-04-19T04:19:40;12.00;99.90
25512;DHT22;13414;44.534;18.700;2023-04-19T04:22:09;12.00;99.90
25512;DHT22;13414;44.534;18.700;2023-04-19T04:24:42;12.00;99.90
25512;DHT22;13414;44.534;18.700;2023-04-19T04:27:20;12.00;99.90
25512;DHT22;13414;44.534;18.700;2023-04-19T04:29:52;12.00;99.90
25512;DHT22;13414;44.534;18.700;2023-04-19T04:32:24;12.00;99.90
25512;DHT22;13414;44.534;18.700;2023-04-19T04:34:57;12.00;99.90
25512;DHT22;13414;44.534;18.700;2023-04-19T04:37:35;12.00;99.90
25512;DHT22;13414;44.534;18.700;2023-04-19T04:40:07;12.00;99.90
25512;DHT22;13414;44.534;18.700;2023-04-19T04:42:35;12.00;99.90
25512;DHT22;13414;44.534;18.700;2023-04-19T04:45:04;11.90;99.90
25512;DHT22;13414;44.534;18.700;2023-04-19T04:47:35;12.00;99.90
25512;DHT22;13414;44.534;18.700;2023-04-19T04:50:05;11.90;99.90
25512;DHT22;13414;44.534;18.700;2023-04-19T04:52:33;11.90;99.90
25512;DHT22;13414;44.534;18.700;2023-04-19T04:55:10;11.90;99.90
25512;DHT22;13414;44.534;18.700;2023-04-19T04:57:42;11.90;99.90
25512;DHT22;13414;44.534;18.700;2023-04-19T05:00:16;11.90;99.90
25512;DHT22;13414;44.534;18.700;2023-04-19T05:02:53;12.00;99.90
25512;DHT22;13414;44.534;18.700;2023-04-19T05:05:22;12.00;99.90
25512;DHT22;13414;44.534;18.700;2023-04-19T05:07:50;12.00;99.90
25512;DHT22;13414;44.534;18.700;2023-04-19T05:10:18;12.00;99.90
25512;DHT22;13414;44.534;18.700;2023-04-19T05:12:47;12.00;99.90
25512;DHT22;13414;44.534;18.700;2023-04-19T05:15:14;12.00;99.90
25512;DHT22;13414;44.534;18.700;2023-04-19T05:17:50;12.00;99.90
25512;DHT22;13414;44.534;18.700;2023-04-19T05:20:20;12.00;99.90
25512;DHT22;13414;44.534;18.700;2023-04-19T05:22:56;12.00;99.90
25512;DHT22;13414;44.534;18.700;2023-04-19T05:25:26;12.00;99.90
25512;DHT22;13414;44.534;18.700;2023-04-19T05:27:54;12.00;99.90
25512;DHT22;13414;44.534;18.700;2023-04-19T05:30:23;12.00;99.90
25512;DHT22;13414;44.534;18.700;2023-04-19T05:32:51;12.00;99.90
25512;DHT22;13414;44.534;18.700;2023-04-19T05:35:18;12.10;99.90
25512;DHT22;13414;44.534;18.700;2023-04-19T05:37:46;12.10;99.90
25512;DHT22;13414;44.534;18.700;2023-04-19T05:40:14;12.10;99.90
25512;DHT22;13414;44.534;18.700;2023-04-19T05:42:43;12.10;99.90
25512;DHT22;13414;44.534;18.700;2023-04-19T05:45:10;12.10;99.90
25512;DHT22;13414;44.534;18.700;2023-04-19T05:47:40;12.20;99.90
25512;DHT22;13414;44.534;18.700;2023-04-19T05:50:23;12.20;99.90
25512;DHT22;13414;44.534;18.700;2023-04-19T05:53:11;12.20;99.90
25512;DHT22;13414;44.534;18.700;2023-04-19T05:55:38;12.30;99.90
25512;DHT22;13414;44.534;18.700;2023-04-19T05:58:07;12.20;99.90
25512;DHT22;13414;44.534;18.700;2023-04-19T06:00:36;12.30;99.90
25512;DHT22;13414;44.534;18.700;2023-04-19T06:03:09;12.30;99.90
25512;DHT22;13414;44.534;18.700;2023-04-19T06:05:37;12.30;99.90
25512;DHT22;13414;44.534;18.700;2023-04-19T06:08:05;12.40;99.90
25512;DHT22;13414;44.534;18.700;2023-04-19T06:10:34;12.50;99.90
25512;DHT22;13414;44.534;18.700;2023-04-19T06:13:02;12.60;99.90
25512;DHT22;13414;44.534;18.700;2023-04-19T06:15:32;12.70;99.90
25512;DHT22;13414;44.534;18.700;2023-04-19T06:17:59;12.80;99.90
25512;DHT22;13414;44.534;18.700;2023-04-19T06:20:27;12.80;99.90
25512;DHT22;13414;44.534;18.700;2023-04-19T06:22:54;12.80;99.90
25512;DHT22;13414;44.534;18.700;2023-04-19T06:25:22;12.70;99.90
25512;DHT22;13414;44.534;18.700;2023-04-19T06:27:50;12.70;99.90
25512;DHT22;13414;44.534;18.700;2023-04-19T06:30:18;12.60;99.90
25512;DHT22;13414;44.534;18.700;2023-04-19T06:32:47;12.70;99.90
25512;DHT22;13414;44.534;18.700;2023-04-19T06:35:14;12.60;99.90
25512;DHT22;13414;44.534;18.700;2023-04-19T06:37:44;12.60;99.90
25512;DHT22;13414;44.534;18.700;2023-04-19T06:40:11;12.60;99.90
25512;DHT22;13414;44.534;18.700;2023-04-19T06:42:39;12.60;99.90
25512;DHT22;13414;44.534;18.700;2023-04-19T06:45:07;12.70;99.90
25512;DHT22;13414;44.534;18.700;2023-04-19T06:47:35;12.70;99.90
25512;DHT22;13414;44.534;18.700;2023-04-19T06:50:04;12.80;99.90
25512;DHT22;13414;44.534;18.700;2023-04-19T06:52:32;12.70;99.90
25512;DHT22;13414;44.534;18.700;2023-04-19T06:55:00;12.80;99.90
25512;DHT22;13414;44.534;18.700;2023-04-19T06:57:27;12.70;99.90
25512;DHT22;13414;44.534;18.700;2023-04-19T06:59:55;12.70;99.90
25512;DHT22;13414;44.534;18.700;2023-04-19T07:02:24;12.60;99.90
25512;DHT22;13414;44.534;18.700;2023-04-19T07:04:51;12.70;99.90
25512;DHT22;13414;44.534;18.700;2023-04-19T07:07:20;12.70;99.90
25512;DHT22;13414;44.534;18.700;2023-04-19T07:09:48;12.80;99.90
25512;DHT22;13414;44.534;18.700;2023-04-19T07:12:15;12.90;99.90
25512;DHT22;13414;44.534;18.700;2023-04-19T07:14:43;13.00;99.90
25512;DHT22;13414;44.534;18.700;2023-04-19T07:17:10;13.10;99.90
25512;DHT22;13414;44.534;18.700;2023-04-19T07:19:38;13.20;99.90
25512;DHT22;13414;44.534;18.700;2023-04-19T07:22:07;13.20;99.90
25512;DHT22;13414;44.534;18.700;2023-04-19T07:24:36;13.40;99.90
25512;DHT22;13414;44.534;18.700;2023-04-19T07:27:05;13.50;99.90
25512;DHT22;13414;44.534;18.700;2023-04-19T07:29:33;13.60;99.90
25512;DHT22;13414;44.534;18.700;2023-04-19T07:32:01;13.50;99.90
25512;DHT22;13414;44.534;18.700;2023-04-19T07:34:29;13.40;99.90
25512;DHT22;13414;44.534;18.700;2023-04-19T07:36:56;13.30;99.90
25512;DHT22;13414;44.534;18.700;2023-04-19T07:39:23;13.30;99.90
25512;DHT22;13414;44.534;18.700;2023-04-19T07:41:52;13.20;99.90
25512;DHT22;13414;44.534;18.700;2023-04-19T07:44:20;13.30;99.90
25512;DHT22;13414;44.534;18.700;2023-04-19T07:46:47;13.40;99.90
25512;DHT22;13414;44.534;18.700;2023-04-19T07:49:14;13.60;99.90
25512;DHT22;13414;44.534;18.700;2023-04-19T07:51:42;13.60;99.90
25512;DHT22;13414;44.534;18.700;2023-04-19T07:54:09;13.80;99.90
25512;DHT22;13414;44.534;18.700;2023-04-19T07:56:37;13.90;99.90
25512;DHT22;13414;44.534;18.700;2023-04-19T07:59:06;13.90;99.90
25512;DHT22;13414;44.534;18.700;2023-04-19T08:01:33;13.90;99.90
25512;DHT22;13414;44.534;18.700;2023-04-19T08:04:01;13.80;99.90
25512;DHT22;13414;44.534;18.700;2023-04-19T08:06:29;13.70;99.90
25512;DHT22;13414;44.534;18.700;2023-04-19T08:08:56;13.60;99.90
25512;DHT22;13414;44.534;18.700;2023-04-19T08:11:24;13.60;99.90
25512;DHT22;13414;44.534;18.700;2023-04-19T08:13:51;13.60;99.90
25512;DHT22;13414;44.534;18.700;2023-04-19T08:16:20;13.50;99.90
25512;DHT22;13414;44.534;18.700;2023-04-19T08:18:47;13.50;99.90
25512;DHT22;13414;44.534;18.700;2023-04-19T08:21:16;13.60;99.90
25512;DHT22;13414;44.534;18.700;2023-04-19T08:23:44;13.60;99.90
25512;DHT22;13414;44.534;18.700;2023-04-19T08:26:12;13.70;99.90
25512;DHT22;13414;44.534;18.700;2023-04-19T08:28:39;13.70;99.90
25512;DHT22;13414;44.534;18.700;2023-04-19T08:31:07;13.70;99.90
25512;DHT22;13414;44.534;18.700;2023-04-19T08:33:36;13.70;99.90
25512;DHT22;13414;44.534;18.700;2023-04-19T08:36:04;13.80;99.90
25512;DHT22;13414;44.534;18.700;2023-04-19T08:38:32;14.00;99.90
25512;DHT22;13414;44.534;18.700;2023-04-19T08:41:00;14.10;99.90
25512;DHT22;13414;44.534;18.700;2023-04-19T08:43:29;14.00;99.90
25512;DHT22;13414;44.534;18.700;2023-04-19T08:45:58;14.10;99.90
25512;DHT22;13414;44.534;18.700;2023-04-19T08:48:26;14.10;99.90
25512;DHT22;13414;44.534;18.700;2023-04-19T08:50:57;14.00;99.90
25512;DHT22;13414;44.534;18.700;2023-04-19T08:53:27;14.00;99.90
25512;DHT22;13414;44.534;18.700;2023-04-19T08:55:55;14.00;99.90
25512;DHT22;13414;44.534;18.700;2023-04-19T08:58:24;14.00;99.90
25512;DHT22;13414;44.534;18.700;2023-04-19T09:00:55;14.00;99.90
25512;DHT22;13414;44.534;18.700;2023-04-19T09:03:22;14.00;99.90
25512;DHT22;13414;44.534;18.700;2023-04-19T09:05:50;14.10;99.90
25512;DHT22;13414;44.534;18.700;2023-04-19T09:08:25;14.30;99.90
25512;DHT22;13414;44.534;18.700;2023-04-19T09:10:53;14.40;99.90
25512;DHT22;13414;44.534;18.700;2023-04-19T09:13:21;14.70;99.90
25512;DHT22;13414;44.534;18.700;2023-04-19T09:15:49;14.90;99.90
25512;DHT22;13414;44.534;18.700;2023-04-19T09:18:16;15.20;99.90
25512;DHT22;13414;44.534;18.700;2023-04-19T09:20:45;15.50;99.90
25512;DHT22;13414;44.534;18.700;2023-04-19T09:23:13;15.70;99.90
25512;DHT22;13414;44.534;18.700;2023-04-19T09:25:52;15.80;99.90
25512;DHT22;13414;44.534;18.700;2023-04-19T09:28:19;15.90;99.90
25512;DHT22;13414;44.534;18.700;2023-04-19T09:30:47;15.80;99.90
25512;DHT22;13414;44.534;18.700;2023-04-19T09:33:30;15.60;99.90
25512;DHT22;13414;44.534;18.700;2023-04-19T09:35:59;15.50;99.90
25512;DHT22;13414;44.534;18.700;2023-04-19T09:38:27;15.40;99.90
25512;DHT22;13414;44.534;18.700;2023-04-19T09:41:06;15.40;99.90
25512;DHT22;13414;44.534;18.700;2023-04-19T09:43:35;15.20;99.90
25512;DHT22;13414;44.534;18.700;2023-04-19T09:46:02;15.40;99.90
25512;DHT22;13414;44.534;18.700;2023-04-19T09:48:30;15.80;99.90
25512;DHT22;13414;44.534;18.700;2023-04-19T09:50:58;16.30;99.90
25512;DHT22;13414;44.534;18.700;2023-04-19T09:53:28;16.80;99.90
25512;DHT22;13414;44.534;18.700;2023-04-19T09:55:58;17.40;99.90
25512;DHT22;13414;44.534;18.700;2023-04-19T09:58:28;18.00;99.90
25512;DHT22;13414;44.534;18.700;2023-04-19T10:00:57;18.30;99.90
25512;DHT22;13414;44.534;18.700;2023-04-19T10:03:28;18.50;99.90
25512;DHT22;13414;44.534;18.700;2023-04-19T10:05:56;17.90;99.90
25512;DHT22;13414;44.534;18.700;2023-04-19T10:08:24;17.40;99.90
25512;DHT22;13414;44.534;18.700;2023-04-19T10:10:53;17.50;99.90
25512;DHT22;13414;44.534;18.700;2023-04-19T10:13:21;17.80;99.90
25512;DHT22;13414;44.534;18.700;2023-04-19T10:15:50;18.20;99.90
25512;DHT22;13414;44.534;18.700;2023-04-19T10:18:18;18.50;99.90
25512;DHT22;13414;44.534;18.700;2023-04-19T10:20:50;18.30;99.90
25512;DHT22;13414;44.534;18.700;2023-04-19T10:23:19;18.40;99.90
25512;DHT22;13414;44.534;18.700;2023-04-19T10:25:47;18.10;99.90
25512;DHT22;13414;44.534;18.700;2023-04-19T10:28:15;18.20;99.90
25512;DHT22;13414;44.534;18.700;2023-04-19T10:30:55;18.10;99.90
25512;DHT22;13414;44.534;18.700;2023-04-19T10:33:24;18.20;99.90
25512;DHT22;13414;44.534;18.700;2023-04-19T10:35:55;18.10;99.90
25512;DHT22;13414;44.534;18.700;2023-04-19T10:38:35;18.00;99.80
25512;DHT22;13414;44.534;18.700;2023-04-19T10:41:03;18.00;99.90
25512;DHT22;13414;44.534;18.700;2023-04-19T10:43:37;17.80;99.90
25512;DHT22;13414;44.534;18.700;2023-04-19T10:46:14;17.50;99.90
25512;DHT22;13414;44.534;18.700;2023-04-19T10:48:52;17.50;99.50
25512;DHT22;13414;44.534;18.700;2023-04-19T10:51:22;17.30;95.90
25512;DHT22;13414;44.534;18.700;2023-04-19T10:53:54;16.80;91.70
25512;DHT22;13414;44.534;18.700;2023-04-19T10:56:55;16.80;93.80
25512;DHT22;13414;44.534;18.700;2023-04-19T10:59:23;16.40;99.90
25512;DHT22;13414;44.534;18.700;2023-04-19T11:01:53;16.30;99.90
25512;DHT22;13414;44.534;18.700;2023-04-19T11:04:23;15.80;99.90
25512;DHT22;13414;44.534;18.700;2023-04-19T11:07:04;15.20;99.90
25512;DHT22;13414;44.534;18.700;2023-04-19T11:09:34;14.80;99.90
25512;DHT22;13414;44.534;18.700;2023-04-19T11:12:03;14.60;99.90
25512;DHT22;13414;44.534;18.700;2023-04-19T11:14:35;14.70;99.90
25512;DHT22;13414;44.534;18.700;2023-04-19T11:17:13;14.80;99.90
25512;DHT22;13414;44.534;18.700;2023-04-19T11:19:42;14.90;99.90
25512;DHT22;13414;44.534;18.700;2023-04-19T11:22:10;15.30;99.90
25512;DHT22;13414;44.534;18.700;2023-04-19T11:24:44;15.60;99.90
25512;DHT22;13414;44.534;18.700;2023-04-19T11:27:12;15.70;99.90
25512;DHT22;13414;44.534;18.700;2023-04-19T11:29:40;15.90;99.90
25512;DHT22;13414;44.534;18.700;2023-04-19T11:32:09;16.00;99.90
25512;DHT22;13414;44.534;18.700;2023-04-19T11:34:37;15.80;99.90
25512;DHT22;13414;44.534;18.700;2023-04-19T11:37:04;16.00;99.90
25512;DHT22;13414;44.534;18.700;2023-04-19T11:39:32;16.50;99.90
25512;DHT22;13414;44.534;18.700;2023-04-19T11:41:59;16.70;99.90
25512;DHT22;13414;44.534;18.700;2023-04-19T11:44:28;16.90;99.90
25512;DHT22;13414;44.534;18.700;2023-04-19T11:46:59;17.20;99.90
25512;DHT22;13414;44.534;18.700;2023-04-19T11:49:30;17.60;99.60
25512;DHT22;13414;44.534;18.700;2023-04-19T11:51:59;17.80;99.90
25512;DHT22;13414;44.534;18.700;2023-04-19T11:54:27;18.00;97.40
25512;DHT22;13414;44.534;18.700;2023-04-19T11:56:59;17.70;93.10
25512;DHT22;13414;44.534;18.700;2023-04-19T11:59:27;17.50;91.80
25512;DHT22;13414;44.534;18.700;2023-04-19T12:01:55;17.30;92.10
25512;DHT22;13414;44.534;18.700;2023-04-19T12:04:22;17.30;93.70
25512;DHT22;13414;44.534;18.700;2023-04-19T12:06:57;17.40;94.40
25512;DHT22;13414;44.534;18.700;2023-04-19T12:09:25;17.40;92.40
25512;DHT22;13414;44.534;18.700;2023-04-19T12:11:53;17.50;91.50
25512;DHT22;13414;44.534;18.700;2023-04-19T12:14:21;17.50;90.20
25512;DHT22;13414;44.534;18.700;2023-04-19T12:17:08;17.60;90.90
25512;DHT22;13414;44.534;18.700;2023-04-19T12:19:41;17.70;91.50
25512;DHT22;13414;44.534;18.700;2023-04-19T12:22:15;17.60;93.30
25512;DHT22;13414;44.534;18.700;2023-04-19T12:24:45;17.50;92.50
25512;DHT22;13414;44.534;18.700;2023-04-19T12:27:16;17.60;92.60
25512;DHT22;13414;44.534;18.700;2023-04-19T12:29:44;17.50;91.80
25512;DHT22;13414;44.534;18.700;2023-04-19T12:32:11;17.20;94.10
25512;DHT22;13414;44.534;18.700;2023-04-19T12:34:40;17.00;96.40
25512;DHT22;13414;44.534;18.700;2023-04-19T12:37:07;17.10;99.80
25512;DHT22;13414;44.534;18.700;2023-04-19T12:39:37;17.50;98.30
25512;DHT22;13414;44.534;18.700;2023-04-19T12:42:05;17.80;94.40
25512;DHT22;13414;44.534;18.700;2023-04-19T12:44:33;17.80;92.10
25512;DHT22;13414;44.534;18.700;2023-04-19T12:47:03;17.50;90.60
25512;DHT22;13414;44.534;18.700;2023-04-19T12:49:31;17.20;91.10
25512;DHT22;13414;44.534;18.700;2023-04-19T12:52:01;16.90;90.80
25512;DHT22;13414;44.534;18.700;2023-04-19T12:54:29;16.70;94.20
25512;DHT22;13414;44.534;18.700;2023-04-19T12:56:58;16.60;95.70
25512;DHT22;13414;44.534;18.700;2023-04-19T12:59:26;16.40;99.90
25512;DHT22;13414;44.534;18.700;2023-04-19T13:01:53;16.30;99.90
25512;DHT22;13414;44.534;18.700;2023-04-19T13:04:23;16.10;99.90
25512;DHT22;13414;44.534;18.700;2023-04-19T13:06:56;15.90;99.90
25512;DHT22;13414;44.534;18.700;2023-04-19T13:09:27;15.80;99.90
25512;DHT22;13414;44.534;18.700;2023-04-19T13:12:05;15.70;99.90
25512;DHT22;13414;44.534;18.700;2023-04-19T13:14:33;15.30;99.90
25512;DHT22;13414;44.534;18.700;2023-04-19T13:17:03;15.10;99.90
25512;DHT22;13414;44.534;18.700;2023-04-19T13:19:31;15.00;99.90
25512;DHT22;13414;44.534;18.700;2023-04-19T13:21:58;14.90;99.90
25512;DHT22;13414;44.534;18.700;2023-04-19T13:24:26;14.80;99.90
25512;DHT22;13414;44.534;18.700;2023-04-19T13:26:53;14.70;99.90
25512;DHT22;13414;44.534;18.700;2023-04-19T13:29:22;14.60;99.90
25512;DHT22;13414;44.534;18.700;2023-04-19T13:31:50;14.40;99.90
25512;DHT22;13414;44.534;18.700;2023-04-19T13:34:17;14.20;99.90
25512;DHT22;13414;44.534;18.700;2023-04-19T13:36:45;14.00;99.90
25512;DHT22;13414;44.534;18.700;2023-04-19T13:39:12;13.90;99.90
25512;DHT22;13414;44.534;18.700;2023-04-19T13:41:39;13.70;99.90
25512;DHT22;13414;44.534;18.700;2023-04-19T13:44:07;13.50;99.90
25512;DHT22;13414;44.534;18.700;2023-04-19T13:46:36;13.50;99.90
25512;DHT22;13414;44.534;18.700;2023-04-19T13:49:03;13.50;99.90
25512;DHT22;13414;44.534;18.700;2023-04-19T13:51:31;13.40;99.90
25512;DHT22;13414;44.534;18.700;2023-04-19T13:53:58;13.40;99.90
25512;DHT22;13414;44.534;18.700;2023-04-19T13:56:26;13.40;99.90
25512;DHT22;13414;44.534;18.700;2023-04-19T13:58:53;13.40;99.90
25512;DHT22;13414;44.534;18.700;2023-04-19T14:01:22;13.60;99.90
25512;DHT22;13414;44.534;18.700;2023-04-19T14:03:51;13.70;99.90
25512;DHT22;13414;44.534;18.700;2023-04-19T14:06:18;13.80;99.90
25512;DHT22;13414;44.534;18.700;2023-04-19T14:08:46;14.00;99.90
25512;DHT22;13414;44.534;18.700;2023-04-19T14:11:13;14.30;99.90
25512;DHT22;13414;44.534;18.700;2023-04-19T14:13:41;14.40;99.90
25512;DHT22;13414;44.534;18.700;2023-04-19T14:16:09;14.50;99.90
25512;DHT22;13414;44.534;18.700;2023-04-19T14:18:36;14.50;99.90
25512;DHT22;13414;44.534;18.700;2023-04-19T14:21:05;14.30;99.90
25512;DHT22;13414;44.534;18.700;2023-04-19T14:23:35;14.20;99.90
25512;DHT22;13414;44.534;18.700;2023-04-19T14:26:02;14.20;99.90
25512;DHT22;13414;44.534;18.700;2023-04-19T14:28:30;14.20;99.90
25512;DHT22;13414;44.534;18.700;2023-04-19T14:30:57;14.30;99.90
25512;DHT22;13414;44.534;18.700;2023-04-19T14:33:24;14.40;99.90
25512;DHT22;13414;44.534;18.700;2023-04-19T14:35:52;14.60;99.90
25512;DHT22;13414;44.534;18.700;2023-04-19T14:38:21;14.70;99.90
25512;DHT22;13414;44.534;18.700;2023-04-19T14:40:48;14.70;99.90
25512;DHT22;13414;44.534;18.700;2023-04-19T14:43:16;14.60;99.90
25512;DHT22;13414;44.534;18.700;2023-04-19T14:45:43;14.50;99.90
25512;DHT22;13414;44.534;18.700;2023-04-19T14:48:11;14.20;99.90
25512;DHT22;13414;44.534;18.700;2023-04-19T14:50:38;14.10;99.90
25512;DHT22;13414;44.534;18.700;2023-04-19T14:53:05;14.00;99.90
25512;DHT22;13414;44.534;18.700;2023-04-19T14:55:36;14.10;99.90
25512;DHT22;13414;44.534;18.700;2023-04-19T14:58:03;14.20;99.90
25512;DHT22;13414;44.534;18.700;2023-04-19T15:00:31;14.30;99.90
25512;DHT22;13414;44.534;18.700;2023-04-19T15:02:59;14.50;99.90
25512;DHT22;13414;44.534;18.700;2023-04-19T15:05:26;14.60;99.90
25512;DHT22;13414;44.534;18.700;2023-04-19T15:07:54;14.80;99.90
25512;DHT22;13414;44.534;18.700;2023-04-19T15:10:21;15.00;99.90
25512;DHT22;13414;44.534;18.700;2023-04-19T15:12:50;15.00;99.90
25512;DHT22;13414;44.534;18.700;2023-04-19T15:15:17;15.00;99.90
25512;DHT22;13414;44.534;18.700;2023-04-19T15:17:45;15.10;99.90
25512;DHT22;13414;44.534;18.700;2023-04-19T15:20:12;15.10;99.90
25512;DHT22;13414;44.534;18.700;2023-04-19T15:22:40;15.10;99.90
25512;DHT22;13414;44.534;18.700;2023-04-19T15:25:08;15.10;99.90
25512;DHT22;13414;44.534;18.700;2023-04-19T15:27:35;14.90;99.90